White Oak, Iowa
Current Conditions -  °F | °C
As of 6:55 PM on Tuesday 21 Oct 2014 (Local Time) from KIKV Reporting Station
Clear Clear  
Wind Chill: 55°   Ceiling: Unl
Heat Index: 55°   Visibility: 10mi
Dew Point: 43°   Wind: 7mph
Humidity: 63%   Direction: 110°ESE
Pressure: 30.13"   Gusts: NA
Location:  41.8082°N, 93.529°W
Report Text: KIKV 212355Z AUTO 11006KT 10SM CLR 13/06 A3013 RMK AO2
Loading
Personal Weather Stations






























Interactive Weather Map
Tropical Storm Tracking
New forecast layout! Learn more

10-Day Weather Forecast

Advertisements
Track Severe Weather on mobile